sensor_id;sensor_type;location;lat;lon;timestamp;P1;durP1;ratioP1;P2;durP2;ratioP2
1180;SDS011;579;52.046;8.532;2023-04-03T00:01:02;0.08;;;0.08;;
1180;SDS011;579;52.046;8.532;2023-04-03T00:03:29;0.10;;;0.10;;
1180;SDS011;579;52.046;8.532;2023-04-03T00:05:56;0.03;;;0.03;;
1180;SDS011;579;52.046;8.532;2023-04-03T00:08:22;0.10;;;0.10;;
1180;SDS011;579;52.046;8.532;2023-04-03T00:16:02;0.00;;;0.00;;
1180;SDS011;579;52.046;8.532;2023-04-03T00:18:28;0.00;;;0.00;;
1180;SDS011;579;52.046;8.532;2023-04-03T00:20:55;0.10;;;0.10;;
1180;SDS011;579;52.046;8.532;2023-04-03T00:23:21;0.08;;;0.08;;
1180;SDS011;579;52.046;8.532;2023-04-03T00:25:49;0.00;;;0.00;;
1180;SDS011;579;52.046;8.532;2023-04-03T00:28:17;0.00;;;0.00;;
1180;SDS011;579;52.046;8.532;2023-04-03T00:30:43;0.10;;;0.10;;
1180;SDS011;579;52.046;8.532;2023-04-03T00:38:16;0.10;;;0.10;;
1180;SDS011;579;52.046;8.532;2023-04-03T00:40:44;0.08;;;0.08;;
1180;SDS011;579;52.046;8.532;2023-04-03T00:43:13;0.10;;;0.10;;
1180;SDS011;579;52.046;8.532;2023-04-03T00:45:43;0.10;;;0.10;;
1180;SDS011;579;52.046;8.532;2023-04-03T00:48:14;0.10;;;0.10;;
1180;SDS011;579;52.046;8.532;2023-04-03T00:50:44;0.10;;;0.10;;
1180;SDS011;579;52.046;8.532;2023-04-03T00:53:12;0.03;;;0.03;;
1180;SDS011;579;52.046;8.532;2023-04-03T01:00:50;0.00;;;0.00;;
1180;SDS011;579;52.046;8.532;2023-04-03T01:03:22;0.00;;;0.00;;
1180;SDS011;579;52.046;8.532;2023-04-03T01:05:49;0.08;;;0.08;;
1180;SDS011;579;52.046;8.532;2023-04-03T01:08:15;0.10;;;0.10;;
1180;SDS011;579;52.046;8.532;2023-04-03T01:10:42;0.10;;;0.10;;
1180;SDS011;579;52.046;8.532;2023-04-03T01:13:22;0.00;;;0.00;;
1180;SDS011;579;52.046;8.532;2023-04-03T01:15:52;0.08;;;0.08;;
1180;SDS011;579;52.046;8.532;2023-04-03T01:23:28;0.00;;;0.00;;
1180;SDS011;579;52.046;8.532;2023-04-03T01:26:17;0.03;;;0.03;;
1180;SDS011;579;52.046;8.532;2023-04-03T01:28:44;0.08;;;0.08;;
1180;SDS011;579;52.046;8.532;2023-04-03T01:31:13;0.10;;;0.10;;
1180;SDS011;579;52.046;8.532;2023-04-03T01:33:46;0.10;;;0.10;;
1180;SDS011;579;52.046;8.532;2023-04-03T01:36:14;0.10;;;0.10;;
1180;SDS011;579;52.046;8.532;2023-04-03T01:45:22;0.10;;;0.10;;
1180;SDS011;579;52.046;8.532;2023-04-03T01:47:48;0.10;;;0.10;;
1180;SDS011;579;52.046;8.532;2023-04-03T01:50:15;0.10;;;0.10;;
1180;SDS011;579;52.046;8.532;2023-04-03T01:52:41;0.10;;;0.10;;
1180;SDS011;579;52.046;8.532;2023-04-03T01:55:08;0.10;;;0.10;;
1180;SDS011;579;52.046;8.532;2023-04-03T01:57:34;0.00;;;0.00;;
1180;SDS011;579;52.046;8.532;2023-04-03T02:00:01;0.00;;;0.00;;
1180;SDS011;579;52.046;8.532;2023-04-03T02:07:23;0.05;;;0.05;;
1180;SDS011;579;52.046;8.532;2023-04-03T02:09:49;0.00;;;0.00;;
1180;SDS011;579;52.046;8.532;2023-04-03T02:12:15;0.10;;;0.10;;
1180;SDS011;579;52.046;8.532;2023-04-03T02:14:42;0.00;;;0.00;;
1180;SDS011;579;52.046;8.532;2023-04-03T02:17:08;0.00;;;0.00;;
1180;SDS011;579;52.046;8.532;2023-04-03T02:19:34;0.00;;;0.00;;
1180;SDS011;579;52.046;8.532;2023-04-03T02:22:00;0.08;;;0.08;;
1180;SDS011;579;52.046;8.532;2023-04-03T02:29:22;0.10;;;0.10;;
1180;SDS011;579;52.046;8.532;2023-04-03T02:31:48;0.10;;;0.10;;
1180;SDS011;579;52.046;8.532;2023-04-03T02:34:15;0.10;;;0.10;;
1180;SDS011;579;52.046;8.532;2023-04-03T02:36:41;0.10;;;0.10;;
1180;SDS011;579;52.046;8.532;2023-04-03T02:39:08;0.10;;;0.10;;
1180;SDS011;579;52.046;8.532;2023-04-03T02:41:34;0.00;;;0.00;;
1180;SDS011;579;52.046;8.532;2023-04-03T02:44:00;0.08;;;0.08;;
1180;SDS011;579;52.046;8.532;2023-04-03T02:50:57;0.00;;;0.00;;
1180;SDS011;579;52.046;8.532;2023-04-03T02:53:23;0.10;;;0.10;;
1180;SDS011;579;52.046;8.532;2023-04-03T02:55:49;0.10;;;0.10;;
1180;SDS011;579;52.046;8.532;2023-04-03T02:58:16;0.00;;;0.00;;
1180;SDS011;579;52.046;8.532;2023-04-03T03:00:42;0.10;;;0.10;;
1180;SDS011;579;52.046;8.532;2023-04-03T03:03:08;0.10;;;0.10;;
1180;SDS011;579;52.046;8.532;2023-04-03T03:05:35;0.10;;;0.10;;
1180;SDS011;579;52.046;8.532;2023-04-03T03:11:50;0.10;;;0.10;;
1180;SDS011;579;52.046;8.532;2023-04-03T03:14:16;0.10;;;0.10;;
1180;SDS011;579;52.046;8.532;2023-04-03T03:16:42;0.00;;;0.00;;
1180;SDS011;579;52.046;8.532;2023-04-03T03:19:09;0.10;;;0.10;;
1180;SDS011;579;52.046;8.532;2023-04-03T03:21:36;0.10;;;0.10;;
1180;SDS011;579;52.046;8.532;2023-04-03T03:24:02;0.10;;;0.10;;
1180;SDS011;579;52.046;8.532;2023-04-03T03:26:29;0.10;;;0.10;;
1180;SDS011;579;52.046;8.532;2023-04-03T03:33:33;0.10;;;0.10;;
1180;SDS011;579;52.046;8.532;2023-04-03T03:35:59;0.10;;;0.10;;
1180;SDS011;579;52.046;8.532;2023-04-03T03:38:26;0.00;;;0.00;;
1180;SDS011;579;52.046;8.532;2023-04-03T03:40:52;0.00;;;0.00;;
1180;SDS011;579;52.046;8.532;2023-04-03T03:43:18;0.10;;;0.10;;
1180;SDS011;579;52.046;8.532;2023-04-03T03:45:46;0.10;;;0.10;;
1180;SDS011;579;52.046;8.532;2023-04-03T03:48:16;0.10;;;0.10;;
1180;SDS011;579;52.046;8.532;2023-04-03T03:55:46;0.10;;;0.10;;
1180;SDS011;579;52.046;8.532;2023-04-03T03:58:12;0.10;;;0.10;;
1180;SDS011;579;52.046;8.532;2023-04-03T04:00:39;0.10;;;0.10;;
1180;SDS011;579;52.046;8.532;2023-04-03T04:03:05;0.10;;;0.10;;
1180;SDS011;579;52.046;8.532;2023-04-03T04:05:31;0.10;;;0.10;;
1180;SDS011;579;52.046;8.532;2023-04-03T04:07:58;0.10;;;0.10;;
1180;SDS011;579;52.046;8.532;2023-04-03T04:10:24;0.10;;;0.10;;
1180;SDS011;579;52.046;8.532;2023-04-03T04:17:53;0.10;;;0.10;;
1180;SDS011;579;52.046;8.532;2023-04-03T04:20:19;0.10;;;0.10;;
1180;SDS011;579;52.046;8.532;2023-04-03T04:22:46;0.10;;;0.10;;
1180;SDS011;579;52.046;8.532;2023-04-03T04:25:12;0.10;;;0.10;;
1180;SDS011;579;52.046;8.532;2023-04-03T04:27:39;0.10;;;0.10;;
1180;SDS011;579;52.046;8.532;2023-04-03T04:30:06;0.10;;;0.10;;
1180;SDS011;579;52.046;8.532;2023-04-03T04:32:33;0.10;;;0.10;;
1180;SDS011;579;52.046;8.532;2023-04-03T04:40:00;0.10;;;0.10;;
1180;SDS011;579;52.046;8.532;2023-04-03T04:42:26;0.10;;;0.10;;
1180;SDS011;579;52.046;8.532;2023-04-03T04:44:53;0.10;;;0.10;;
1180;SDS011;579;52.046;8.532;2023-04-03T04:47:19;0.10;;;0.10;;
1180;SDS011;579;52.046;8.532;2023-04-03T04:49:45;0.10;;;0.10;;
1180;SDS011;579;52.046;8.532;2023-04-03T04:52:12;0.10;;;0.10;;
1180;SDS011;579;52.046;8.532;2023-04-03T04:54:39;0.10;;;0.10;;
1180;SDS011;579;52.046;8.532;2023-04-03T05:02:10;0.10;;;0.10;;
1180;SDS011;579;52.046;8.532;2023-04-03T05:04:36;0.00;;;0.00;;
1180;SDS011;579;52.046;8.532;2023-04-03T05:07:03;0.00;;;0.00;;
1180;SDS011;579;52.046;8.532;2023-04-03T05:09:29;0.10;;;0.10;;
1180;SDS011;579;52.046;8.532;2023-04-03T05:11:55;0.10;;;0.10;;
1180;SDS011;579;52.046;8.532;2023-04-03T05:14:22;0.10;;;0.10;;
1180;SDS011;579;52.046;8.532;2023-04-03T05:16:48;0.10;;;0.10;;
1180;SDS011;579;52.046;8.532;2023-04-03T05:24:22;0.10;;;0.10;;
1180;SDS011;579;52.046;8.532;2023-04-03T05:26:48;0.00;;;0.00;;
1180;SDS011;579;52.046;8.532;2023-04-03T05:29:15;0.10;;;0.10;;
1180;SDS011;579;52.046;8.532;2023-04-03T05:31:41;0.00;;;0.00;;
1180;SDS011;579;52.046;8.532;2023-04-03T05:34:08;0.10;;;0.10;;
1180;SDS011;579;52.046;8.532;2023-04-03T05:36:35;0.10;;;0.10;;
1180;SDS011;579;52.046;8.532;2023-04-03T05:39:01;0.00;;;0.00;;
1180;SDS011;579;52.046;8.532;2023-04-03T05:44:08;0.10;;;0.10;;
1180;SDS011;579;52.046;8.532;2023-04-03T05:46:35;0.10;;;0.10;;
1180;SDS011;579;52.046;8.532;2023-04-03T05:49:01;0.10;;;0.10;;
1180;SDS011;579;52.046;8.532;2023-04-03T05:51:28;0.10;;;0.10;;
1180;SDS011;579;52.046;8.532;2023-04-03T05:54:00;0.10;;;0.10;;
1180;SDS011;579;52.046;8.532;2023-04-03T05:56:35;0.10;;;0.10;;
1180;SDS011;579;52.046;8.532;2023-04-03T05:59:01;0.10;;;0.10;;
1180;SDS011;579;52.046;8.532;2023-04-03T06:06:43;0.10;;;0.10;;
1180;SDS011;579;52.046;8.532;2023-04-03T06:09:12;0.00;;;0.00;;
1180;SDS011;579;52.046;8.532;2023-04-03T06:11:38;0.10;;;0.10;;
1180;SDS011;579;52.046;8.532;2023-04-03T06:14:05;0.10;;;0.10;;
1180;SDS011;579;52.046;8.532;2023-04-03T06:16:33;0.10;;;0.10;;
1180;SDS011;579;52.046;8.532;2023-04-03T06:18:59;0.10;;;0.10;;
1180;SDS011;579;52.046;8.532;2023-04-03T06:21:25;0.10;;;0.10;;
1180;SDS011;579;52.046;8.532;2023-04-03T06:28:56;0.00;;;0.00;;
1180;SDS011;579;52.046;8.532;2023-04-03T06:31:23;0.10;;;0.10;;
1180;SDS011;579;52.046;8.532;2023-04-03T06:33:49;0.10;;;0.10;;
1180;SDS011;579;52.046;8.532;2023-04-03T06:36:17;0.10;;;0.10;;
1180;SDS011;579;52.046;8.532;2023-04-03T06:38:45;0.10;;;0.10;;
1180;SDS011;579;52.046;8.532;2023-04-03T06:41:12;0.10;;;0.10;;
1180;SDS011;579;52.046;8.532;2023-04-03T06:43:39;0.10;;;0.10;;
1180;SDS011;579;52.046;8.532;2023-04-03T06:50:23;0.10;;;0.10;;
1180;SDS011;579;52.046;8.532;2023-04-03T06:52:50;0.15;;;0.15;;
1180;SDS011;579;52.046;8.532;2023-04-03T06:55:16;0.10;;;0.10;;
1180;SDS011;579;52.046;8.532;2023-04-03T06:57:42;0.10;;;0.10;;
1180;SDS011;579;52.046;8.532;2023-04-03T07:00:10;0.10;;;0.10;;
1180;SDS011;579;52.046;8.532;2023-04-03T07:02:38;0.10;;;0.10;;
1180;SDS011;579;52.046;8.532;2023-04-03T07:05:04;0.10;;;0.10;;
1180;SDS011;579;52.046;8.532;2023-04-03T07:12:22;0.10;;;0.10;;
1180;SDS011;579;52.046;8.532;2023-04-03T07:14:49;0.10;;;0.10;;
1180;SDS011;579;52.046;8.532;2023-04-03T07:17:15;0.10;;;0.10;;
1180;SDS011;579;52.046;8.532;2023-04-03T07:19:41;0.10;;;0.10;;
1180;SDS011;579;52.046;8.532;2023-04-03T07:22:08;0.10;;;0.10;;
1180;SDS011;579;52.046;8.532;2023-04-03T07:24:36;0.10;;;0.10;;
1180;SDS011;579;52.046;8.532;2023-04-03T07:27:03;0.10;;;0.10;;
1180;SDS011;579;52.046;8.532;2023-04-03T07:32:53;0.10;;;0.10;;
1180;SDS011;579;52.046;8.532;2023-04-03T07:35:20;0.10;;;0.10;;
1180;SDS011;579;52.046;8.532;2023-04-03T07:37:46;0.10;;;0.10;;
1180;SDS011;579;52.046;8.532;2023-04-03T07:40:12;0.10;;;0.10;;
1180;SDS011;579;52.046;8.532;2023-04-03T07:42:39;0.10;;;0.10;;
1180;SDS011;579;52.046;8.532;2023-04-03T07:45:06;0.10;;;0.10;;
1180;SDS011;579;52.046;8.532;2023-04-03T07:47:33;0.10;;;0.10;;
1180;SDS011;579;52.046;8.532;2023-04-03T07:55:05;0.10;;;0.10;;
1180;SDS011;579;52.046;8.532;2023-04-03T07:57:33;0.10;;;0.10;;
1180;SDS011;579;52.046;8.532;2023-04-03T08:00:00;0.10;;;0.10;;
1180;SDS011;579;52.046;8.532;2023-04-03T08:02:26;0.10;;;0.10;;
1180;SDS011;579;52.046;8.532;2023-04-03T08:04:52;0.10;;;0.10;;
1180;SDS011;579;52.046;8.532;2023-04-03T08:07:18;0.10;;;0.10;;
1180;SDS011;579;52.046;8.532;2023-04-03T08:09:45;0.10;;;0.10;;
1180;SDS011;579;52.046;8.532;2023-04-03T08:14:45;0.10;;;0.10;;
1180;SDS011;579;52.046;8.532;2023-04-03T08:17:11;0.10;;;0.10;;
1180;SDS011;579;52.046;8.532;2023-04-03T08:19:38;0.10;;;0.10;;
1180;SDS011;579;52.046;8.532;2023-04-03T08:22:04;0.10;;;0.10;;
1180;SDS011;579;52.046;8.532;2023-04-03T08:24:32;0.10;;;0.10;;
1180;SDS011;579;52.046;8.532;2023-04-03T08:26:59;0.10;;;0.10;;
1180;SDS011;579;52.046;8.532;2023-04-03T08:29:26;0.10;;;0.10;;
1180;SDS011;579;52.046;8.532;2023-04-03T08:36:57;0.10;;;0.10;;
1180;SDS011;579;52.046;8.532;2023-04-03T08:39:24;0.00;;;0.00;;
1180;SDS011;579;52.046;8.532;2023-04-03T08:41:50;0.10;;;0.10;;
1180;SDS011;579;52.046;8.532;2023-04-03T08:44:22;0.10;;;0.10;;
1180;SDS011;579;52.046;8.532;2023-04-03T08:47:04;0.00;;;0.00;;
1180;SDS011;579;52.046;8.532;2023-04-03T08:49:41;0.10;;;0.10;;
1180;SDS011;579;52.046;8.532;2023-04-03T08:52:14;0.10;;;0.10;;
1180;SDS011;579;52.046;8.532;2023-04-03T08:59:48;0.10;;;0.10;;
1180;SDS011;579;52.046;8.532;2023-04-03T09:02:20;0.10;;;0.10;;
1180;SDS011;579;52.046;8.532;2023-04-03T09:04:51;0.10;;;0.10;;
1180;SDS011;579;52.046;8.532;2023-04-03T09:07:20;0.10;;;0.10;;
1180;SDS011;579;52.046;8.532;2023-04-03T09:09:54;0.00;;;0.00;;
1180;SDS011;579;52.046;8.532;2023-04-03T09:12:25;0.10;;;0.10;;
1180;SDS011;579;52.046;8.532;2023-04-03T09:15:02;0.10;;;0.10;;
1180;SDS011;579;52.046;8.532;2023-04-03T09:20:19;0.10;;;0.10;;
1180;SDS011;579;52.046;8.532;2023-04-03T09:22:51;0.10;;;0.10;;
1180;SDS011;579;52.046;8.532;2023-04-03T09:25:20;0.10;;;0.10;;
1180;SDS011;579;52.046;8.532;2023-04-03T09:27:49;0.10;;;0.10;;
1180;SDS011;579;52.046;8.532;2023-04-03T09:30:16;0.10;;;0.10;;
1180;SDS011;579;52.046;8.532;2023-04-03T09:32:45;0.10;;;0.10;;
1180;SDS011;579;52.046;8.532;2023-04-03T09:35:18;0.10;;;0.10;;
1180;SDS011;579;52.046;8.532;2023-04-03T09:41:58;0.10;;;0.10;;
1180;SDS011;579;52.046;8.532;2023-04-03T09:44:27;0.10;;;0.10;;
1180;SDS011;579;52.046;8.532;2023-04-03T09:46:56;0.20;;;0.20;;
1180;SDS011;579;52.046;8.532;2023-04-03T09:49:22;0.43;;;0.43;;
1180;SDS011;579;52.046;8.532;2023-04-03T09:51:49;0.30;;;0.30;;
1180;SDS011;579;52.046;8.532;2023-04-03T09:54:31;0.40;;;0.40;;
1180;SDS011;579;52.046;8.532;2023-04-03T09:57:06;0.40;;;0.40;;
1180;SDS011;579;52.046;8.532;2023-04-03T10:04:23;0.50;;;0.50;;
1180;SDS011;579;52.046;8.532;2023-04-03T10:06:50;0.40;;;0.40;;
1180;SDS011;579;52.046;8.532;2023-04-03T10:09:20;0.60;;;0.60;;
1180;SDS011;579;52.046;8.532;2023-04-03T10:11:58;0.63;;;0.63;;
1180;SDS011;579;52.046;8.532;2023-04-03T10:14:29;0.50;;;0.50;;
1180;SDS011;579;52.046;8.532;2023-04-03T10:16:58;0.63;;;0.63;;
1180;SDS011;579;52.046;8.532;2023-04-03T10:19:38;0.60;;;0.60;;
1180;SDS011;579;52.046;8.532;2023-04-03T10:27:16;0.50;;;0.50;;
1180;SDS011;579;52.046;8.532;2023-04-03T10:29:53;0.50;;;0.50;;
1180;SDS011;579;52.046;8.532;2023-04-03T10:35:16;0.38;;;0.38;;
1180;SDS011;579;52.046;8.532;2023-04-03T10:37:57;0.50;;;0.50;;
1180;SDS011;579;52.046;8.532;2023-04-03T10:40:31;0.47;;;0.47;;
1180;SDS011;579;52.046;8.532;2023-04-03T10:45:52;0.57;;;0.57;;
1180;SDS011;579;52.046;8.532;2023-04-03T10:48:28;0.50;;;0.50;;
1180;SDS011;579;52.046;8.532;2023-04-03T10:51:08;0.50;;;0.50;;
1180;SDS011;579;52.046;8.532;2023-04-03T10:53:45;0.38;;;0.38;;
1180;SDS011;579;52.046;8.532;2023-04-03T10:56:19;0.30;;;0.30;;
1180;SDS011;579;52.046;8.532;2023-04-03T10:58:56;0.50;;;0.50;;
1180;SDS011;579;52.046;8.532;2023-04-03T11:01:31;0.30;;;0.30;;
1180;SDS011;579;52.046;8.532;2023-04-03T11:07:53;0.40;;;0.40;;
1180;SDS011;579;52.046;8.532;2023-04-03T11:10:24;0.60;;;0.60;;
1180;SDS011;579;52.046;8.532;2023-04-03T11:12:58;0.30;;;0.30;;
1180;SDS011;579;52.046;8.532;2023-04-03T11:15:33;0.50;;;0.50;;
1180;SDS011;579;52.046;8.532;2023-04-03T11:18:00;0.30;;;0.30;;
1180;SDS011;579;52.046;8.532;2023-04-03T11:20:30;0.28;;;0.28;;
1180;SDS011;579;52.046;8.532;2023-04-03T11:23:01;0.30;;;0.30;;
1180;SDS011;579;52.046;8.532;2023-04-03T11:28:22;0.20;;;0.20;;
1180;SDS011;579;52.046;8.532;2023-04-03T11:30:49;0.30;;;0.30;;
1180;SDS011;579;52.046;8.532;2023-04-03T11:33:32;0.30;;;0.30;;
1180;SDS011;579;52.046;8.532;2023-04-03T11:36:08;0.50;;;0.50;;
1180;SDS011;579;52.046;8.532;2023-04-03T11:38:46;0.35;;;0.35;;
1180;SDS011;579;52.046;8.532;2023-04-03T11:41:14;0.60;;;0.60;;
1180;SDS011;579;52.046;8.532;2023-04-03T11:43:43;0.40;;;0.40;;
1180;SDS011;579;52.046;8.532;2023-04-03T11:49:58;0.47;;;0.47;;
1180;SDS011;579;52.046;8.532;2023-04-03T11:55:41;0.93;;;0.93;;
1180;SDS011;579;52.046;8.532;2023-04-03T11:58:23;0.60;;;0.60;;
1180;SDS011;579;52.046;8.532;2023-04-03T12:00:53;0.80;;;0.80;;
1180;SDS011;579;52.046;8.532;2023-04-03T12:03:30;0.70;;;0.70;;
1180;SDS011;579;52.046;8.532;2023-04-03T12:11:24;0.22;;;0.22;;
1180;SDS011;579;52.046;8.532;2023-04-03T12:14:04;0.30;;;0.30;;
1180;SDS011;579;52.046;8.532;2023-04-03T12:16:42;0.38;;;0.38;;
1180;SDS011;579;52.046;8.532;2023-04-03T12:22:09;0.45;;;0.45;;
1180;SDS011;579;52.046;8.532;2023-04-03T12:24:38;0.40;;;0.40;;
1180;SDS011;579;52.046;8.532;2023-04-03T12:34:04;0.40;;;0.40;;
1180;SDS011;579;52.046;8.532;2023-04-03T12:36:46;0.50;;;0.50;;
1180;SDS011;579;52.046;8.532;2023-04-03T12:39:25;0.40;;;0.40;;
1180;SDS011;579;52.046;8.532;2023-04-03T12:42:19;0.32;;;0.32;;
1180;SDS011;579;52.046;8.532;2023-04-03T12:45:16;0.50;;;0.50;;
1180;SDS011;579;52.046;8.532;2023-04-03T12:47:45;0.50;;;0.50;;
1180;SDS011;579;52.046;8.532;2023-04-03T12:56:52;0.30;;;0.30;;
1180;SDS011;579;52.046;8.532;2023-04-03T12:59:36;0.40;;;0.40;;
1180;SDS011;579;52.046;8.532;2023-04-03T13:02:10;0.50;;;0.50;;
1180;SDS011;579;52.046;8.532;2023-04-03T13:04:49;0.38;;;0.38;;
1180;SDS011;579;52.046;8.532;2023-04-03T13:07:20;0.45;;;0.45;;
1180;SDS011;579;52.046;8.532;2023-04-03T13:10:00;0.60;;;0.60;;
1180;SDS011;579;52.046;8.532;2023-04-03T13:15:24;1.45;;;1.45;;
1180;SDS011;579;52.046;8.532;2023-04-03T13:17:56;1.25;;;1.25;;
1180;SDS011;579;52.046;8.532;2023-04-03T13:20:24;1.10;;;1.10;;
1180;SDS011;579;52.046;8.532;2023-04-03T13:22:54;1.35;;;1.35;;
1180;SDS011;579;52.046;8.532;2023-04-03T13:25:24;1.42;;;1.42;;
1180;SDS011;579;52.046;8.532;2023-04-03T13:27:53;2.05;;;2.03;;
1180;SDS011;579;52.046;8.532;2023-04-03T13:30:21;2.13;;;2.13;;
1180;SDS011;579;52.046;8.532;2023-04-03T13:37:24;1.08;;;1.08;;
1180;SDS011;579;52.046;8.532;2023-04-03T13:39:57;0.80;;;0.80;;
1180;SDS011;579;52.046;8.532;2023-04-03T13:42:36;0.75;;;0.75;;
1180;SDS011;579;52.046;8.532;2023-04-03T13:45:08;1.13;;;1.13;;
1180;SDS011;579;52.046;8.532;2023-04-03T13:47:45;0.47;;;0.47;;
1180;SDS011;579;52.046;8.532;2023-04-03T13:50:15;0.40;;;0.40;;
1180;SDS011;579;52.046;8.532;2023-04-03T13:52:46;0.50;;;0.50;;
1180;SDS011;579;52.046;8.532;2023-04-03T13:59:52;0.25;;;0.25;;
1180;SDS011;579;52.046;8.532;2023-04-03T14:02:20;0.80;;;0.80;;
1180;SDS011;579;52.046;8.532;2023-04-03T14:04:50;0.80;;;0.80;;
1180;SDS011;579;52.046;8.532;2023-04-03T14:07:21;1.00;;;1.00;;
1180;SDS011;579;52.046;8.532;2023-04-03T14:09:49;0.60;;;0.60;;
1180;SDS011;579;52.046;8.532;2023-04-03T14:12:17;1.20;;;1.20;;
1180;SDS011;579;52.046;8.532;2023-04-03T14:14:47;0.55;;;0.55;;
1180;SDS011;579;52.046;8.532;2023-04-03T14:21:49;0.70;;;0.70;;
1180;SDS011;579;52.046;8.532;2023-04-03T14:24:16;0.50;;;0.50;;
1180;SDS011;579;52.046;8.532;2023-04-03T14:26:44;0.70;;;0.70;;
1180;SDS011;579;52.046;8.532;2023-04-03T14:29:11;0.40;;;0.40;;
1180;SDS011;579;52.046;8.532;2023-04-03T14:31:38;1.08;;;1.08;;
1180;SDS011;579;52.046;8.532;2023-04-03T14:34:05;0.85;;;0.85;;
1180;SDS011;579;52.046;8.532;2023-04-03T14:36:32;0.38;;;0.38;;
1180;SDS011;579;52.046;8.532;2023-04-03T14:43:54;0.40;;;0.40;;
1180;SDS011;579;52.046;8.532;2023-04-03T14:46:22;0.30;;;0.30;;
1180;SDS011;579;52.046;8.532;2023-04-03T14:48:52;0.40;;;0.40;;
1180;SDS011;579;52.046;8.532;2023-04-03T14:51:19;0.82;;;0.82;;
1180;SDS011;579;52.046;8.532;2023-04-03T14:53:45;0.57;;;0.57;;
1180;SDS011;579;52.046;8.532;2023-04-03T14:56:13;0.82;;;0.82;;
1180;SDS011;579;52.046;8.532;2023-04-03T14:58:42;0.98;;;0.98;;
1180;SDS011;579;52.046;8.532;2023-04-03T15:05:54;1.10;;;1.10;;
1180;SDS011;579;52.046;8.532;2023-04-03T15:08:21;0.70;;;0.70;;
1180;SDS011;579;52.046;8.532;2023-04-03T15:10:51;0.70;;;0.70;;
1180;SDS011;579;52.046;8.532;2023-04-03T15:13:20;1.37;;;1.37;;
1180;SDS011;579;52.046;8.532;2023-04-03T15:15:47;1.10;;;1.10;;
1180;SDS011;579;52.046;8.532;2023-04-03T15:18:15;1.20;;;1.20;;
1180;SDS011;579;52.046;8.532;2023-04-03T15:20:45;6.13;;;5.50;;
1180;SDS011;579;52.046;8.532;2023-04-03T15:27:53;2.27;;;2.27;;
1180;SDS011;579;52.046;8.532;2023-04-03T15:30:20;2.33;;;2.33;;
1180;SDS011;579;52.046;8.532;2023-04-03T15:32:46;1.40;;;1.40;;
1180;SDS011;579;52.046;8.532;2023-04-03T15:35:14;2.10;;;2.10;;
1180;SDS011;579;52.046;8.532;2023-04-03T15:37:41;2.45;;;2.45;;
1180;SDS011;579;52.046;8.532;2023-04-03T15:40:08;2.17;;;2.17;;
1180;SDS011;579;52.046;8.532;2023-04-03T15:42:35;1.83;;;1.83;;
1180;SDS011;579;52.046;8.532;2023-04-03T15:47:41;1.10;;;1.10;;
1180;SDS011;579;52.046;8.532;2023-04-03T15:50:07;1.58;;;1.58;;
1180;SDS011;579;52.046;8.532;2023-04-03T15:52:35;1.10;;;1.10;;
1180;SDS011;579;52.046;8.532;2023-04-03T15:55:01;1.10;;;1.10;;
1180;SDS011;579;52.046;8.532;2023-04-03T15:57:28;1.00;;;1.00;;
1180;SDS011;579;52.046;8.532;2023-04-03T15:59:54;1.40;;;1.40;;
1180;SDS011;579;52.046;8.532;2023-04-03T16:02:21;1.20;;;1.20;;
1180;SDS011;579;52.046;8.532;2023-04-03T16:09:24;1.50;;;1.50;;
1180;SDS011;579;52.046;8.532;2023-04-03T16:11:50;1.23;;;1.23;;
1180;SDS011;579;52.046;8.532;2023-04-03T16:14:16;1.00;;;1.00;;
1180;SDS011;579;52.046;8.532;2023-04-03T16:16:42;2.00;;;2.00;;
1180;SDS011;579;52.046;8.532;2023-04-03T16:19:09;0.90;;;0.90;;
1180;SDS011;579;52.046;8.532;2023-04-03T16:21:36;1.30;;;1.30;;
1180;SDS011;579;52.046;8.532;2023-04-03T16:24:02;0.60;;;0.60;;
1180;SDS011;579;52.046;8.532;2023-04-03T16:30:47;1.52;;;1.52;;
1180;SDS011;579;52.046;8.532;2023-04-03T16:33:14;1.23;;;1.23;;
1180;SDS011;579;52.046;8.532;2023-04-03T16:35:40;0.90;;;0.90;;
1180;SDS011;579;52.046;8.532;2023-04-03T16:38:06;0.73;;;0.73;;
1180;SDS011;579;52.046;8.532;2023-04-03T16:40:33;1.10;;;1.10;;
1180;SDS011;579;52.046;8.532;2023-04-03T16:43:00;1.00;;;1.00;;
1180;SDS011;579;52.046;8.532;2023-04-03T16:45:27;0.60;;;0.60;;
1180;SDS011;579;52.046;8.532;2023-04-03T16:50:33;0.70;;;0.70;;
1180;SDS011;579;52.046;8.532;2023-04-03T16:53:00;0.40;;;0.40;;
1180;SDS011;579;52.046;8.532;2023-04-03T16:55:28;0.10;;;0.10;;
1180;SDS011;579;52.046;8.532;2023-04-03T16:57:56;0.10;;;0.10;;
1180;SDS011;579;52.046;8.532;2023-04-03T17:00:23;0.00;;;0.00;;
1180;SDS011;579;52.046;8.532;2023-04-03T17:02:50;0.00;;;0.00;;
1180;SDS011;579;52.046;8.532;2023-04-03T17:05:17;0.00;;;0.00;;
1180;SDS011;579;52.046;8.532;2023-04-03T17:10:23;0.10;;;0.10;;
1180;SDS011;579;52.046;8.532;2023-04-03T17:12:50;0.10;;;0.10;;
1180;SDS011;579;52.046;8.532;2023-04-03T17:15:16;0.10;;;0.10;;
1180;SDS011;579;52.046;8.532;2023-04-03T17:17:44;0.10;;;0.10;;
1180;SDS011;579;52.046;8.532;2023-04-03T17:20:12;0.10;;;0.10;;
1180;SDS011;579;52.046;8.532;2023-04-03T17:22:38;0.10;;;0.10;;
1180;SDS011;579;52.046;8.532;2023-04-03T17:25:05;0.10;;;0.10;;
1180;SDS011;579;52.046;8.532;2023-04-03T17:30:07;0.00;;;0.00;;
1180;SDS011;579;52.046;8.532;2023-04-03T17:32:35;0.00;;;0.00;;
1180;SDS011;579;52.046;8.532;2023-04-03T17:35:03;0.10;;;0.10;;
1180;SDS011;579;52.046;8.532;2023-04-03T17:37:30;0.10;;;0.10;;
1180;SDS011;579;52.046;8.532;2023-04-03T17:39:56;0.00;;;0.00;;
1180;SDS011;579;52.046;8.532;2023-04-03T17:42:22;0.00;;;0.00;;
1180;SDS011;579;52.046;8.532;2023-04-03T17:44:49;0.00;;;0.00;;
1180;SDS011;579;52.046;8.532;2023-04-03T17:49:53;0.00;;;0.00;;
1180;SDS011;579;52.046;8.532;2023-04-03T17:52:19;0.00;;;0.00;;
1180;SDS011;579;52.046;8.532;2023-04-03T17:54:49;0.00;;;0.00;;
1180;SDS011;579;52.046;8.532;2023-04-03T17:57:15;0.10;;;0.10;;
1180;SDS011;579;52.046;8.532;2023-04-03T17:59:41;0.00;;;0.00;;
1180;SDS011;579;52.046;8.532;2023-04-03T18:02:08;0.00;;;0.00;;
1180;SDS011;579;52.046;8.532;2023-04-03T18:04:34;0.10;;;0.10;;
1180;SDS011;579;52.046;8.532;2023-04-03T18:12:00;0.00;;;0.00;;
1180;SDS011;579;52.046;8.532;2023-04-03T18:14:30;0.10;;;0.10;;
1180;SDS011;579;52.046;8.532;2023-04-03T18:16:59;0.00;;;0.00;;
1180;SDS011;579;52.046;8.532;2023-04-03T18:19:25;0.00;;;0.00;;
1180;SDS011;579;52.046;8.532;2023-04-03T18:21:52;0.00;;;0.00;;
1180;SDS011;579;52.046;8.532;2023-04-03T18:24:22;0.00;;;0.00;;
1180;SDS011;579;52.046;8.532;2023-04-03T18:26:50;0.00;;;0.00;;
1180;SDS011;579;52.046;8.532;2023-04-03T18:34:30;0.08;;;0.08;;
1180;SDS011;579;52.046;8.532;2023-04-03T18:36:57;0.00;;;0.00;;
1180;SDS011;579;52.046;8.532;2023-04-03T18:39:24;0.00;;;0.00;;
1180;SDS011;579;52.046;8.532;2023-04-03T18:41:50;0.00;;;0.00;;
1180;SDS011;579;52.046;8.532;2023-04-03T18:44:18;0.00;;;0.00;;
1180;SDS011;579;52.046;8.532;2023-04-03T18:46:48;0.00;;;0.00;;
1180;SDS011;579;52.046;8.532;2023-04-03T18:49:14;0.00;;;0.00;;
1180;SDS011;579;52.046;8.532;2023-04-03T18:56:59;0.00;;;0.00;;
1180;SDS011;579;52.046;8.532;2023-04-03T18:59:25;0.00;;;0.00;;
1180;SDS011;579;52.046;8.532;2023-04-03T19:01:52;0.00;;;0.00;;
1180;SDS011;579;52.046;8.532;2023-04-03T19:04:19;0.00;;;0.00;;
1180;SDS011;579;52.046;8.532;2023-04-03T19:06:46;0.00;;;0.00;;
1180;SDS011;579;52.046;8.532;2023-04-03T19:09:12;0.00;;;0.00;;
1180;SDS011;579;52.046;8.532;2023-04-03T19:11:39;0.10;;;0.10;;
1180;SDS011;579;52.046;8.532;2023-04-03T19:19:11;0.00;;;0.00;;
1180;SDS011;579;52.046;8.532;2023-04-03T19:21:38;0.10;;;0.10;;
1180;SDS011;579;52.046;8.532;2023-04-03T19:24:06;0.00;;;0.00;;
1180;SDS011;579;52.046;8.532;2023-04-03T19:26:33;0.10;;;0.10;;
1180;SDS011;579;52.046;8.532;2023-04-03T19:28:59;0.10;;;0.10;;
1180;SDS011;579;52.046;8.532;2023-04-03T19:31:26;0.10;;;0.10;;
1180;SDS011;579;52.046;8.532;2023-04-03T19:33:52;0.10;;;0.10;;
1180;SDS011;579;52.046;8.532;2023-04-03T19:38:59;0.10;;;0.10;;
1180;SDS011;579;52.046;8.532;2023-04-03T19:41:26;0.10;;;0.10;;
1180;SDS011;579;52.046;8.532;2023-04-03T19:43:54;0.10;;;0.10;;
1180;SDS011;579;52.046;8.532;2023-04-03T19:46:22;0.10;;;0.10;;
1180;SDS011;579;52.046;8.532;2023-04-03T19:48:49;0.10;;;0.10;;
1180;SDS011;579;52.046;8.532;2023-04-03T19:51:16;0.10;;;0.10;;